sensor_id;sensor_type;location;lat;lon;timestamp;pressure;altitude;pressure_sealevel;temperature;humidity
31121;BME280;17770;45.966;13.632;2024-03-23T00:54:07;100430.38;;;19.99;64.21
31121;BME280;17770;45.966;13.632;2024-03-23T00:56:32;100424.28;;;19.99;64.31
31121;BME280;17770;45.966;13.632;2024-03-23T00:58:58;100417.38;;;19.98;64.38
31121;BME280;17770;45.966;13.632;2024-03-23T01:01:24;100410.34;;;19.98;64.49
31121;BME280;17770;45.966;13.632;2024-03-23T01:03:50;100407.84;;;19.97;64.09
31121;BME280;17770;45.966;13.632;2024-03-23T01:06:16;100407.84;;;19.97;64.00
31121;BME280;17770;45.966;13.632;2024-03-23T01:08:42;100403.56;;;19.96;64.22
31121;BME280;17770;45.966;13.632;2024-03-23T01:11:07;100395.69;;;19.96;64.33
31121;BME280;17770;45.966;13.632;2024-03-23T01:13:33;100404.50;;;19.95;63.96
31121;BME280;17770;45.966;13.632;2024-03-23T01:15:59;100398.41;;;19.94;64.12
31121;BME280;17770;45.966;13.632;2024-03-23T01:18:25;100394.09;;;19.93;64.27
31121;BME280;17770;45.966;13.632;2024-03-23T01:20:52;100394.94;;;19.94;64.31
31121;BME280;17770;45.966;13.632;2024-03-23T01:23:18;100395.91;;;19.93;64.54
31121;BME280;17770;45.966;13.632;2024-03-23T01:25:43;100398.53;;;19.93;64.11
31121;BME280;17770;45.966;13.632;2024-03-23T01:28:09;100398.53;;;19.93;63.98
31121;BME280;17770;45.966;13.632;2024-03-23T01:30:35;100395.06;;;19.92;64.28
31121;BME280;17770;45.966;13.632;2024-03-23T01:33:01;100401.25;;;19.91;64.08
31121;BME280;17770;45.966;13.632;2024-03-23T01:35:28;100403.00;;;19.91;64.26
31121;BME280;17770;45.966;13.632;2024-03-23T01:37:54;100401.34;;;19.90;64.25
31121;BME280;17770;45.966;13.632;2024-03-23T01:40:20;100406.59;;;19.90;64.17
31121;BME280;17770;45.966;13.632;2024-03-23T01:42:58;100406.59;;;19.90;64.20
31121;BME280;17770;45.966;13.632;2024-03-23T01:45:24;100405.00;;;19.87;63.86
31121;BME280;17770;45.966;13.632;2024-03-23T01:47:51;100399.75;;;19.87;64.17
31121;BME280;17770;45.966;13.632;2024-03-23T01:50:18;100400.59;;;19.88;64.33
31121;BME280;17770;45.966;13.632;2024-03-23T01:52:44;100398.00;;;19.88;64.09
31121;BME280;17770;45.966;13.632;2024-03-23T01:55:10;100392.88;;;19.86;64.21
31121;BME280;17770;45.966;13.632;2024-03-23T01:57:36;100397.25;;;19.86;64.25
31121;BME280;17770;45.966;13.632;2024-03-23T02:00:02;100391.28;;;19.84;64.29
31121;BME280;17770;45.966;13.632;2024-03-23T02:02:44;100392.97;;;19.85;64.10
31121;BME280;17770;45.966;13.632;2024-03-23T02:05:10;100384.28;;;19.84;64.40
31121;BME280;17770;45.966;13.632;2024-03-23T02:07:37;100380.91;;;19.82;64.20
31121;BME280;17770;45.966;13.632;2024-03-23T02:10:03;100382.69;;;19.82;64.31
31121;BME280;17770;45.966;13.632;2024-03-23T02:12:29;100380.00;;;19.83;64.28
31121;BME280;17770;45.966;13.632;2024-03-23T02:14:55;100369.59;;;19.82;64.06
31121;BME280;17770;45.966;13.632;2024-03-23T02:17:21;100366.06;;;19.83;63.89
31121;BME280;17770;45.966;13.632;2024-03-23T02:19:47;100373.91;;;19.83;63.89
31121;BME280;17770;45.966;13.632;2024-03-23T02:22:13;100357.47;;;19.81;63.86
31121;BME280;17770;45.966;13.632;2024-03-23T02:24:39;100354.09;;;19.79;64.18
31121;BME280;17770;45.966;13.632;2024-03-23T02:27:04;100341.00;;;19.79;64.08
31121;BME280;17770;45.966;13.632;2024-03-23T02:29:30;100341.00;;;19.79;63.94
31121;BME280;17770;45.966;13.632;2024-03-23T02:31:56;100339.34;;;19.78;63.89
31121;BME280;17770;45.966;13.632;2024-03-23T02:34:22;100334.13;;;19.78;63.67
31121;BME280;17770;45.966;13.632;2024-03-23T02:36:48;100339.34;;;19.78;64.08
31121;BME280;17770;45.966;13.632;2024-03-23T02:39:14;100340.28;;;19.77;64.18
31121;BME280;17770;45.966;13.632;2024-03-23T02:41:40;100335.03;;;19.77;64.08
31121;BME280;17770;45.966;13.632;2024-03-23T02:44:06;100336.00;;;19.76;64.00
31121;BME280;17770;45.966;13.632;2024-03-23T02:46:32;100330.88;;;19.74;63.85
31121;BME280;17770;45.966;13.632;2024-03-23T02:48:58;100334.44;;;19.73;64.35
31121;BME280;17770;45.966;13.632;2024-03-23T02:51:24;100332.63;;;19.74;63.89
31121;BME280;17770;45.966;13.632;2024-03-23T02:53:50;100324.06;;;19.72;64.05
31121;BME280;17770;45.966;13.632;2024-03-23T02:56:15;100324.88;;;19.72;64.07
31121;BME280;17770;45.966;13.632;2024-03-23T02:58:42;100330.22;;;19.71;63.75
31121;BME280;17770;45.966;13.632;2024-03-23T03:01:08;100322.38;;;19.71;63.63
31121;BME280;17770;45.966;13.632;2024-03-23T03:03:34;100326.75;;;19.70;64.07
31121;BME280;17770;45.966;13.632;2024-03-23T03:06:00;100323.34;;;19.70;63.82
31121;BME280;17770;45.966;13.632;2024-03-23T03:08:26;100319.97;;;19.68;63.90
31121;BME280;17770;45.966;13.632;2024-03-23T03:10:52;100315.47;;;19.70;63.92
31121;BME280;17770;45.966;13.632;2024-03-23T03:13:17;100320.81;;;19.68;64.05
31121;BME280;17770;45.966;13.632;2024-03-23T03:15:43;100320.81;;;19.68;63.83
31121;BME280;17770;45.966;13.632;2024-03-23T03:18:09;100315.69;;;19.67;63.98
31121;BME280;17770;45.966;13.632;2024-03-23T03:20:38;100314.84;;;19.66;63.80
31121;BME280;17770;45.966;13.632;2024-03-23T03:23:05;100313.25;;;19.64;64.01
31121;BME280;17770;45.966;13.632;2024-03-23T03:25:31;100317.69;;;19.63;64.05
31121;BME280;17770;45.966;13.632;2024-03-23T03:27:57;100314.22;;;19.63;64.00
31121;BME280;17770;45.966;13.632;2024-03-23T03:30:23;100315.06;;;19.63;64.06
31121;BME280;17770;45.966;13.632;2024-03-23T03:32:49;100319.44;;;19.63;64.03
31121;BME280;17770;45.966;13.632;2024-03-23T03:35:15;100314.22;;;19.63;63.81
31121;BME280;17770;45.966;13.632;2024-03-23T03:37:41;100326.44;;;19.62;63.60
31121;BME280;17770;45.966;13.632;2024-03-23T03:40:07;100321.44;;;19.59;63.99
31121;BME280;17770;45.966;13.632;2024-03-23T03:42:34;100323.13;;;19.60;63.94
31121;BME280;17770;45.966;13.632;2024-03-23T03:45:00;100311.91;;;19.58;63.81
31121;BME280;17770;45.966;13.632;2024-03-23T03:47:26;100317.25;;;19.57;63.70
31121;BME280;17770;45.966;13.632;2024-03-23T03:49:52;100317.97;;;19.59;63.53
31121;BME280;17770;45.966;13.632;2024-03-23T03:52:18;100317.25;;;19.57;63.66
31121;BME280;17770;45.966;13.632;2024-03-23T03:54:44;100315.56;;;19.56;63.89
31121;BME280;17770;45.966;13.632;2024-03-23T03:57:09;100317.34;;;19.55;63.71
31121;BME280;17770;45.966;13.632;2024-03-23T03:59:35;100318.28;;;19.54;63.98
31121;BME280;17770;45.966;13.632;2024-03-23T04:02:01;100317.44;;;19.54;63.99
31121;BME280;17770;45.966;13.632;2024-03-23T04:04:27;100322.78;;;19.52;63.90
31121;BME280;17770;45.966;13.632;2024-03-23T04:07:02;100322.78;;;19.52;63.82
31121;BME280;17770;45.966;13.632;2024-03-23T04:09:28;100322.78;;;19.52;63.50
31121;BME280;17770;45.966;13.632;2024-03-23T04:11:54;100322.78;;;19.52;63.92
31121;BME280;17770;45.966;13.632;2024-03-23T04:14:20;100321.09;;;19.51;63.59
31121;BME280;17770;45.966;13.632;2024-03-23T04:16:46;100316.81;;;19.50;63.73
31121;BME280;17770;45.966;13.632;2024-03-23T04:19:12;100315.97;;;19.50;63.61
31121;BME280;17770;45.966;13.632;2024-03-23T04:21:38;100322.13;;;19.48;63.75
31121;BME280;17770;45.966;13.632;2024-03-23T04:24:04;100313.47;;;19.48;63.83
31121;BME280;17770;45.966;13.632;2024-03-23T04:26:30;100307.38;;;19.48;63.77
31121;BME280;17770;45.966;13.632;2024-03-23T04:29:05;100307.50;;;19.46;63.48
31121;BME280;17770;45.966;13.632;2024-03-23T04:31:31;100314.50;;;19.45;63.92
31121;BME280;17770;45.966;13.632;2024-03-23T04:34:03;100309.25;;;19.45;63.49
31121;BME280;17770;45.966;13.632;2024-03-23T04:36:29;100317.22;;;19.44;63.75
31121;BME280;17770;45.966;13.632;2024-03-23T04:38:55;100307.69;;;19.43;63.79
31121;BME280;17770;45.966;13.632;2024-03-23T04:41:21;100308.56;;;19.43;63.98
31121;BME280;17770;45.966;13.632;2024-03-23T04:43:47;100307.69;;;19.43;63.63
31121;BME280;17770;45.966;13.632;2024-03-23T04:46:12;100309.56;;;19.41;63.80
31121;BME280;17770;45.966;13.632;2024-03-23T04:48:38;100308.63;;;19.42;63.47
31121;BME280;17770;45.966;13.632;2024-03-23T04:51:04;100304.44;;;19.39;63.54
31121;BME280;17770;45.966;13.632;2024-03-23T04:53:30;100311.34;;;19.40;63.71
31121;BME280;17770;45.966;13.632;2024-03-23T04:55:56;100297.56;;;19.38;63.48
31121;BME280;17770;45.966;13.632;2024-03-23T04:58:22;100296.72;;;19.38;63.54
31121;BME280;17770;45.966;13.632;2024-03-23T05:00:58;100289.78;;;19.37;63.85
31121;BME280;17770;45.966;13.632;2024-03-23T05:03:23;100295.00;;;19.37;63.59
31121;BME280;17770;45.966;13.632;2024-03-23T05:05:49;100293.34;;;19.36;63.62
31121;BME280;17770;45.966;13.632;2024-03-23T05:08:16;100295.13;;;19.35;63.44
31121;BME280;17770;45.966;13.632;2024-03-23T05:10:44;100297.72;;;19.35;63.67
31121;BME280;17770;45.966;13.632;2024-03-23T05:13:11;100285.59;;;19.34;63.34
31121;BME280;17770;45.966;13.632;2024-03-23T05:15:37;100291.78;;;19.33;63.71
31121;BME280;17770;45.966;13.632;2024-03-23T05:18:04;100287.38;;;19.34;63.47
31121;BME280;17770;45.966;13.632;2024-03-23T05:20:31;100282.25;;;19.32;63.40
31121;BME280;17770;45.966;13.632;2024-03-23T05:22:57;100288.44;;;19.31;63.40
31121;BME280;17770;45.966;13.632;2024-03-23T05:25:22;100280.69;;;19.30;63.54
31121;BME280;17770;45.966;13.632;2024-03-23T05:27:48;100279.00;;;19.29;63.41
31121;BME280;17770;45.966;13.632;2024-03-23T05:30:15;100284.22;;;19.29;63.66
31121;BME280;17770;45.966;13.632;2024-03-23T05:32:41;100280.75;;;19.28;63.67
31121;BME280;17770;45.966;13.632;2024-03-23T05:35:07;100283.38;;;19.28;63.53
31121;BME280;17770;45.966;13.632;2024-03-23T05:37:33;100282.63;;;19.26;63.63
31121;BME280;17770;45.966;13.632;2024-03-23T05:40:00;100284.31;;;19.27;63.55
31121;BME280;17770;45.966;13.632;2024-03-23T05:42:26;100286.91;;;19.27;63.77
31121;BME280;17770;45.966;13.632;2024-03-23T05:44:52;100279.28;;;19.24;63.30
31121;BME280;17770;45.966;13.632;2024-03-23T05:47:18;100282.75;;;19.25;63.51
31121;BME280;17770;45.966;13.632;2024-03-23T05:49:44;100275.81;;;19.24;63.40
31121;BME280;17770;45.966;13.632;2024-03-23T05:52:12;100278.44;;;19.24;63.46
31121;BME280;17770;45.966;13.632;2024-03-23T05:54:38;100273.31;;;19.22;63.25
31121;BME280;17770;45.966;13.632;2024-03-23T05:57:04;100284.63;;;19.23;63.58
31121;BME280;17770;45.966;13.632;2024-03-23T05:59:30;100290.69;;;19.23;63.03
31121;BME280;17770;45.966;13.632;2024-03-23T06:01:56;100285.56;;;19.22;63.33
31121;BME280;17770;45.966;13.632;2024-03-23T06:04:22;100280.34;;;19.22;63.30
31121;BME280;17770;45.966;13.632;2024-03-23T06:06:48;100288.28;;;19.20;63.41
31121;BME280;17770;45.966;13.632;2024-03-23T06:09:14;100280.50;;;19.19;63.34
31121;BME280;17770;45.966;13.632;2024-03-23T06:11:40;100286.59;;;19.19;63.22
31121;BME280;17770;45.966;13.632;2024-03-23T06:14:05;100281.47;;;19.18;63.40
31121;BME280;17770;45.966;13.632;2024-03-23T06:16:31;100285.22;;;19.14;63.50
31121;BME280;17770;45.966;13.632;2024-03-23T06:18:57;100279.06;;;19.15;63.27
31121;BME280;17770;45.966;13.632;2024-03-23T06:21:24;100282.53;;;19.15;63.31
31121;BME280;17770;45.966;13.632;2024-03-23T06:23:53;100273.84;;;19.15;63.34
31121;BME280;17770;45.966;13.632;2024-03-23T06:26:19;100272.97;;;19.14;63.38
31121;BME280;17770;45.966;13.632;2024-03-23T06:28:45;100275.59;;;19.14;63.30
31121;BME280;17770;45.966;13.632;2024-03-23T06:31:12;100271.22;;;19.15;63.38
31121;BME280;17770;45.966;13.632;2024-03-23T06:33:38;100260.84;;;19.13;63.32
31121;BME280;17770;45.966;13.632;2024-03-23T06:36:04;100266.91;;;19.14;63.29
31121;BME280;17770;45.966;13.632;2024-03-23T06:38:30;100264.28;;;19.14;63.11
31121;BME280;17770;45.966;13.632;2024-03-23T06:40:56;100263.47;;;19.13;63.18
31121;BME280;17770;45.966;13.632;2024-03-23T06:43:22;100258.25;;;19.13;63.41
31121;BME280;17770;45.966;13.632;2024-03-23T06:45:54;100260.00;;;19.13;63.23
31121;BME280;17770;45.966;13.632;2024-03-23T06:48:20;100255.75;;;19.12;63.29
31121;BME280;17770;45.966;13.632;2024-03-23T06:50:46;100252.28;;;19.11;63.51
31121;BME280;17770;45.966;13.632;2024-03-23T06:53:12;100255.75;;;19.12;63.53
31121;BME280;17770;45.966;13.632;2024-03-23T06:55:38;100248.72;;;19.12;63.38
31121;BME280;17770;45.966;13.632;2024-03-23T06:58:04;100249.66;;;19.11;63.00
31121;BME280;17770;45.966;13.632;2024-03-23T07:00:30;100244.44;;;19.11;63.44
31121;BME280;17770;45.966;13.632;2024-03-23T07:02:56;100240.97;;;19.11;62.83
31121;BME280;17770;45.966;13.632;2024-03-23T07:05:22;100245.38;;;19.10;63.34
31121;BME280;17770;45.966;13.632;2024-03-23T07:07:48;100253.28;;;19.09;63.38
31121;BME280;17770;45.966;13.632;2024-03-23T07:10:13;100246.41;;;19.08;63.39
31121;BME280;17770;45.966;13.632;2024-03-23T07:12:39;100244.63;;;19.08;63.12
31121;BME280;17770;45.966;13.632;2024-03-23T07:15:05;100239.41;;;19.08;63.21
31121;BME280;17770;45.966;13.632;2024-03-23T07:17:31;100243.78;;;19.08;63.11
31121;BME280;17770;45.966;13.632;2024-03-23T07:19:58;100236.06;;;19.06;63.09
31121;BME280;17770;45.966;13.632;2024-03-23T07:22:24;100240.34;;;19.07;63.24
31121;BME280;17770;45.966;13.632;2024-03-23T07:24:50;100238.66;;;19.06;63.28
31121;BME280;17770;45.966;13.632;2024-03-23T07:27:17;100225.59;;;19.06;63.30
31121;BME280;17770;45.966;13.632;2024-03-23T07:29:43;100225.59;;;19.06;63.23
31121;BME280;17770;45.966;13.632;2024-03-23T07:32:09;100222.13;;;19.06;63.24
31121;BME280;17770;45.966;13.632;2024-03-23T07:34:37;100217.00;;;19.04;63.44
31121;BME280;17770;45.966;13.632;2024-03-23T07:37:03;100219.63;;;19.04;63.34
31121;BME280;17770;45.966;13.632;2024-03-23T07:39:29;100226.66;;;19.04;63.53
31121;BME280;17770;45.966;13.632;2024-03-23T07:41:54;100217.97;;;19.03;63.24
31121;BME280;17770;45.966;13.632;2024-03-23T07:44:20;100219.63;;;19.04;63.02
31121;BME280;17770;45.966;13.632;2024-03-23T07:46:46;100204.03;;;19.03;63.33
31121;BME280;17770;45.966;13.632;2024-03-23T07:49:12;100207.81;;;18.99;63.51
31121;BME280;17770;45.966;13.632;2024-03-23T07:51:38;100201.00;;;18.96;63.47
31121;BME280;17770;45.966;13.632;2024-03-23T07:54:05;100205.28;;;18.97;63.34
31121;BME280;17770;45.966;13.632;2024-03-23T07:56:31;100210.22;;;19.02;63.52
31121;BME280;17770;45.966;13.632;2024-03-23T07:58:57;100203.41;;;18.99;63.31
31121;BME280;17770;45.966;13.632;2024-03-23T08:01:23;100209.38;;;19.01;63.24
31121;BME280;17770;45.966;13.632;2024-03-23T08:03:49;100205.09;;;19.00;63.27
31121;BME280;17770;45.966;13.632;2024-03-23T08:06:16;100204.25;;;19.00;63.41
31121;BME280;17770;45.966;13.632;2024-03-23T08:08:43;100209.50;;;19.00;63.33
31121;BME280;17770;45.966;13.632;2024-03-23T08:11:09;100204.25;;;19.00;63.24
31121;BME280;17770;45.966;13.632;2024-03-23T08:13:35;100204.25;;;19.00;63.29
31121;BME280;17770;45.966;13.632;2024-03-23T08:16:02;100210.34;;;19.00;63.52
31121;BME280;17770;45.966;13.632;2024-03-23T08:18:29;100198.28;;;18.98;63.38
31121;BME280;17770;45.966;13.632;2024-03-23T08:21:04;100192.22;;;18.97;63.46
31121;BME280;17770;45.966;13.632;2024-03-23T08:23:31;100193.06;;;18.98;63.54
31121;BME280;17770;45.966;13.632;2024-03-23T08:25:59;100186.06;;;18.98;63.54
31121;BME280;17770;45.966;13.632;2024-03-23T08:28:25;100187.84;;;18.98;63.32
31121;BME280;17770;45.966;13.632;2024-03-23T08:30:55;100188.69;;;18.98;63.34
31121;BME280;17770;45.966;13.632;2024-03-23T08:33:21;100176.47;;;18.99;63.50
31121;BME280;17770;45.966;13.632;2024-03-23T08:35:54;100171.22;;;18.99;63.56
31121;BME280;17770;45.966;13.632;2024-03-23T08:38:21;100177.28;;;18.99;63.52
31121;BME280;17770;45.966;13.632;2024-03-23T08:40:47;100166.81;;;18.99;63.45
31121;BME280;17770;45.966;13.632;2024-03-23T08:43:13;100166.81;;;18.99;63.56
31121;BME280;17770;45.966;13.632;2024-03-23T08:45:39;100164.09;;;19.01;63.58
31121;BME280;17770;45.966;13.632;2024-03-23T08:48:04;100151.97;;;19.00;63.35
31121;BME280;17770;45.966;13.632;2024-03-23T08:50:30;100154.50;;;19.01;63.34
31121;BME280;17770;45.966;13.632;2024-03-23T08:52:56;100144.16;;;19.00;63.46
31121;BME280;17770;45.966;13.632;2024-03-23T08:55:22;100147.50;;;19.02;63.29
31121;BME280;17770;45.966;13.632;2024-03-23T08:57:48;100144.88;;;19.02;63.50
31121;BME280;17770;45.966;13.632;2024-03-23T09:00:14;100141.41;;;19.01;63.42
31121;BME280;17770;45.966;13.632;2024-03-23T09:02:40;100141.41;;;19.01;63.68
31121;BME280;17770;45.966;13.632;2024-03-23T09:05:06;100140.56;;;19.01;63.74
31121;BME280;17770;45.966;13.632;2024-03-23T09:07:32;100137.16;;;19.00;63.42
31121;BME280;17770;45.966;13.632;2024-03-23T09:09:58;100130.97;;;19.01;63.59
31121;BME280;17770;45.966;13.632;2024-03-23T09:12:24;100133.69;;;19.00;63.71
31121;BME280;17770;45.966;13.632;2024-03-23T09:14:50;100132.84;;;18.99;63.91
31121;BME280;17770;45.966;13.632;2024-03-23T09:17:16;100131.19;;;18.98;63.55
31121;BME280;17770;45.966;13.632;2024-03-23T09:19:42;100128.47;;;19.00;63.44
31121;BME280;17770;45.966;13.632;2024-03-23T09:22:07;100128.47;;;19.00;63.54
31121;BME280;17770;45.966;13.632;2024-03-23T09:24:33;100120.50;;;19.01;63.36
31121;BME280;17770;45.966;13.632;2024-03-23T09:26:59;100124.91;;;19.01;63.45
31121;BME280;17770;45.966;13.632;2024-03-23T09:29:25;100123.03;;;19.03;63.47
31121;BME280;17770;45.966;13.632;2024-03-23T09:31:50;100114.25;;;19.04;63.38
31121;BME280;17770;45.966;13.632;2024-03-23T09:34:16;100121.16;;;19.05;63.43
31121;BME280;17770;45.966;13.632;2024-03-23T09:36:42;100115.91;;;19.05;63.18
31121;BME280;17770;45.966;13.632;2024-03-23T09:39:08;100112.34;;;19.06;63.11
31121;BME280;17770;45.966;13.632;2024-03-23T09:41:35;100107.00;;;19.07;63.13
31121;BME280;17770;45.966;13.632;2024-03-23T09:44:01;100107.00;;;19.07;63.03
31121;BME280;17770;45.966;13.632;2024-03-23T09:46:27;100103.47;;;19.08;63.03
31121;BME280;17770;45.966;13.632;2024-03-23T09:48:55;100105.13;;;19.09;63.29
31121;BME280;17770;45.966;13.632;2024-03-23T09:51:21;100098.13;;;19.10;63.21
31121;BME280;17770;45.966;13.632;2024-03-23T09:53:49;100099.06;;;19.09;63.19
31121;BME280;17770;45.966;13.632;2024-03-23T09:56:15;100096.38;;;19.10;63.32
31121;BME280;17770;45.966;13.632;2024-03-23T09:58:43;100085.06;;;19.10;63.32
31121;BME280;17770;45.966;13.632;2024-03-23T10:01:08;100084.97;;;19.11;63.65
31121;BME280;17770;45.966;13.632;2024-03-23T10:03:44;100071.88;;;19.11;63.42
31121;BME280;17770;45.966;13.632;2024-03-23T10:06:10;100079.63;;;19.13;63.35
31121;BME280;17770;45.966;13.632;2024-03-23T10:08:36;100072.53;;;19.15;63.33
31121;BME280;17770;45.966;13.632;2024-03-23T10:11:23;100068.13;;;19.15;63.37
31121;BME280;17770;45.966;13.632;2024-03-23T10:13:48;100071.56;;;19.16;63.47
31121;BME280;17770;45.966;13.632;2024-03-23T10:16:21;100064.69;;;19.15;63.33
31121;BME280;17770;45.966;13.632;2024-03-23T10:18:48;100060.28;;;19.15;63.46
31121;BME280;17770;45.966;13.632;2024-03-23T10:21:14;100044.59;;;19.15;63.33
31121;BME280;17770;45.966;13.632;2024-03-23T10:23:41;100043.53;;;19.18;63.55
31121;BME280;17770;45.966;13.632;2024-03-23T10:26:13;100033.81;;;19.20;63.63
31121;BME280;17770;45.966;13.632;2024-03-23T10:31:23;100023.38;;;19.20;63.63
31121;BME280;17770;45.966;13.632;2024-03-23T10:33:49;100026.72;;;19.22;63.42
31121;BME280;17770;45.966;13.632;2024-03-23T10:36:15;100018.88;;;19.22;63.42
31121;BME280;17770;45.966;13.632;2024-03-23T10:38:42;100019.69;;;19.22;63.69
31121;BME280;17770;45.966;13.632;2024-03-23T10:41:08;100017.81;;;19.24;63.58
31121;BME280;17770;45.966;13.632;2024-03-23T10:43:35;100015.19;;;19.24;63.40
31121;BME280;17770;45.966;13.632;2024-03-23T10:46:01;100003.78;;;19.25;63.25
31121;BME280;17770;45.966;13.632;2024-03-23T10:48:27;100005.34;;;19.28;63.46
31121;BME280;17770;45.966;13.632;2024-03-23T10:50:53;99998.28;;;19.30;63.82
31121;BME280;17770;45.966;13.632;2024-03-23T10:53:20;99991.25;;;19.30;63.90
31121;BME280;17770;45.966;13.632;2024-03-23T10:55:48;99993.66;;;19.33;63.92
31121;BME280;17770;45.966;13.632;2024-03-23T10:58:15;99986.63;;;19.34;64.02
31121;BME280;17770;45.966;13.632;2024-03-23T11:00:42;99981.28;;;19.35;63.87
31121;BME280;17770;45.966;13.632;2024-03-23T11:03:29;99982.97;;;19.36;64.00
31121;BME280;17770;45.966;13.632;2024-03-23T11:05:55;99978.47;;;19.38;63.93
31121;BME280;17770;45.966;13.632;2024-03-23T11:08:34;99968.72;;;19.40;64.32
31121;BME280;17770;45.966;13.632;2024-03-23T11:11:13;99965.19;;;19.41;64.41
31121;BME280;17770;45.966;13.632;2024-03-23T11:13:39;99960.69;;;19.43;64.53
31121;BME280;17770;45.966;13.632;2024-03-23T11:16:15;99954.38;;;19.46;64.42
31121;BME280;17770;45.966;13.632;2024-03-23T11:18:41;99952.91;;;19.42;64.95
31121;BME280;17770;45.966;13.632;2024-03-23T11:21:07;99942.44;;;19.42;64.40
31121;BME280;17770;45.966;13.632;2024-03-23T11:23:33;99936.19;;;19.44;65.17
31121;BME280;17770;45.966;13.632;2024-03-23T11:25:59;99936.91;;;19.47;65.13
31121;BME280;17770;45.966;13.632;2024-03-23T11:28:25;99926.44;;;19.47;64.92
31121;BME280;17770;45.966;13.632;2024-03-23T11:30:51;99931.44;;;19.50;65.18
31121;BME280;17770;45.966;13.632;2024-03-23T11:33:17;99918.25;;;19.51;65.07
31121;BME280;17770;45.966;13.632;2024-03-23T11:35:43;99905.91;;;19.53;64.75
31121;BME280;17770;45.966;13.632;2024-03-23T11:38:15;99907.44;;;19.56;65.26
31121;BME280;17770;45.966;13.632;2024-03-23T11:40:43;99905.66;;;19.56;64.67
31121;BME280;17770;45.966;13.632;2024-03-23T11:43:13;99901.97;;;19.59;65.65
31121;BME280;17770;45.966;13.632;2024-03-23T11:45:46;99891.44;;;19.60;66.03
31121;BME280;17770;45.966;13.632;2024-03-23T11:48:13;99881.66;;;19.62;65.99
31121;BME280;17770;45.966;13.632;2024-03-23T11:50:40;99885.00;;;19.64;65.38
31121;BME280;17770;45.966;13.632;2024-03-23T11:53:23;99871.81;;;19.66;66.04
31121;BME280;17770;45.966;13.632;2024-03-23T11:55:52;99872.53;;;19.68;65.75
31121;BME280;17770;45.966;13.632;2024-03-23T11:58:22;99864.56;;;19.69;65.99
31121;BME280;17770;45.966;13.632;2024-03-23T12:00:52;99860.06;;;19.71;66.18
31121;BME280;17770;45.966;13.632;2024-03-23T12:03:18;99856.38;;;19.74;66.65
31121;BME280;17770;45.966;13.632;2024-03-23T12:05:50;99846.63;;;19.76;66.13
31121;BME280;17770;45.966;13.632;2024-03-23T12:08:31;99838.66;;;19.77;66.43
31121;BME280;17770;45.966;13.632;2024-03-23T12:13:40;99832.38;;;19.80;66.24
31121;BME280;17770;45.966;13.632;2024-03-23T12:16:12;99822.72;;;19.80;66.35
31121;BME280;17770;45.966;13.632;2024-03-23T12:18:39;99818.22;;;19.82;67.74
31121;BME280;17770;45.966;13.632;2024-03-23T12:21:08;99812.84;;;19.84;67.12
31121;BME280;17770;45.966;13.632;2024-03-23T12:23:34;99816.19;;;19.86;66.83
31121;BME280;17770;45.966;13.632;2024-03-23T12:26:00;99810.00;;;19.87;66.62
31121;BME280;17770;45.966;13.632;2024-03-23T12:28:27;99805.47;;;19.89;67.87
31121;BME280;17770;45.966;13.632;2024-03-23T12:30:53;99791.47;;;19.90;67.12
31121;BME280;17770;45.966;13.632;2024-03-23T12:33:22;99787.75;;;19.92;67.74
31121;BME280;17770;45.966;13.632;2024-03-23T12:35:48;99778.13;;;19.93;66.46
31121;BME280;17770;45.966;13.632;2024-03-23T12:38:15;99786.72;;;19.95;66.59
31121;BME280;17770;45.966;13.632;2024-03-23T12:40:41;99784.78;;;19.97;66.04
31121;BME280;17770;45.966;13.632;2024-03-23T12:43:07;99780.28;;;19.99;67.07
31121;BME280;17770;45.966;13.632;2024-03-23T12:45:35;99768.03;;;19.99;66.14
31121;BME280;17770;45.966;13.632;2024-03-23T12:48:01;99771.38;;;20.01;66.00
31121;BME280;17770;45.966;13.632;2024-03-23T12:50:27;99757.31;;;20.02;65.64
31121;BME280;17770;45.966;13.632;2024-03-23T12:52:53;99762.19;;;20.07;66.43
31121;BME280;17770;45.966;13.632;2024-03-23T12:55:19;99756.00;;;20.08;66.29
31121;BME280;17770;45.966;13.632;2024-03-23T12:57:46;99747.19;;;20.09;65.92
31121;BME280;17770;45.966;13.632;2024-03-23T13:00:12;99741.84;;;20.10;65.52
31121;BME280;17770;45.966;13.632;2024-03-23T13:02:38;99728.50;;;20.13;65.60
31121;BME280;17770;45.966;13.632;2024-03-23T13:05:04;99727.56;;;20.14;65.29
31121;BME280;17770;45.966;13.632;2024-03-23T13:07:30;99726.38;;;20.18;66.60
31121;BME280;17770;45.966;13.632;2024-03-23T13:09:56;99721.00;;;20.20;65.72
31121;BME280;17770;45.966;13.632;2024-03-23T13:12:25;99709.59;;;20.21;65.60
31121;BME280;17770;45.966;13.632;2024-03-23T13:14:51;99709.47;;;20.22;65.36
31121;BME280;17770;45.966;13.632;2024-03-23T13:17:17;99710.06;;;20.26;65.25
31121;BME280;17770;45.966;13.632;2024-03-23T13:19:43;99710.66;;;20.29;65.53
31121;BME280;17770;45.966;13.632;2024-03-23T13:22:08;99712.19;;;20.32;65.53
31121;BME280;17770;45.966;13.632;2024-03-23T13:24:37;99711.22;;;20.33;65.16
31121;BME280;17770;45.966;13.632;2024-03-23T13:27:03;99707.53;;;20.35;65.22
31121;BME280;17770;45.966;13.632;2024-03-23T13:29:31;99704.81;;;20.37;65.29
31121;BME280;17770;45.966;13.632;2024-03-23T13:31:56;99707.28;;;20.38;65.05
31121;BME280;17770;45.966;13.632;2024-03-23T13:34:22;99704.44;;;20.41;65.01
31121;BME280;17770;45.966;13.632;2024-03-23T13:36:48;99694.78;;;20.42;65.05
31121;BME280;17770;45.966;13.632;2024-03-23T13:39:14;99691.91;;;20.45;65.34